Wetterdaten: Woche 22.02.10 - 28.02.10 (KW8)
Datum Zeit Temperatur Luftfeuchte Luftdruck Niederschlag Windrichtung Wind
22.02.2010 00:00 -2,3 C 82 % 999,9 hPa 0,0 l/m N 0,1 km/h (0 Bft)
22.02.2010 01:00 -2,8 C 84 % 999,5 hPa 0,0 l/m N 0,8 km/h (0 Bft)
22.02.2010 02:00 -2,3 C 82 % 999,3 hPa 0,0 l/m W-SW 2,3 km/h (1 Bft)
22.02.2010 03:00 -1,8 C 83 % 998,7 hPa 0,0 l/m NO 2,7 km/h (1 Bft)
22.02.2010 04:00 -1,0 C 81 % 998,0 hPa 0,0 l/m SW 3,2 km/h (1 Bft)
22.02.2010 05:00 -1,0 C 83 % 997,9 hPa 0,0 l/m N 0,9 km/h (0 Bft)
22.02.2010 06:00 -0,6 C 84 % 998,2 hPa 0,0 l/m SW 2,5 km/h (1 Bft)
22.02.2010 07:00 -0,7 C 85 % 998,4 hPa 0,0 l/m SW 2,4 km/h (1 Bft)
22.02.2010 08:00 -0,1 C 82 % 998,8 hPa 0,0 l/m S-SW 1,9 km/h (1 Bft)
22.02.2010 09:00 0,7 C 84 % 998,9 hPa 0,0 l/m S-SW 7,6 km/h (2 Bft)
22.02.2010 10:00 3,1 C 87 % 998,6 hPa 0,0 l/m SW 13,3 km/h (3 Bft)
22.02.2010 11:00 4,2 C 83 % 998,6 hPa 0,0 l/m SW 16,5 km/h (3 Bft)
22.02.2010 12:00 4,7 C 80 % 998,2 hPa 0,0 l/m S-SW 14,9 km/h (3 Bft)
22.02.2010 13:00 7,0 C 69 % 997,4 hPa 0,0 l/m SW 14,0 km/h (3 Bft)
22.02.2010 14:00 7,4 C 64 % 996,8 hPa 0,0 l/m SW 9,2 km/h (2 Bft)
22.02.2010 15:00 8,1 C 60 % 996,2 hPa 0,0 l/m SW 10,1 km/h (2 Bft)
22.02.2010 16:00 8,3 C 59 % 995,6 hPa 0,0 l/m SW 6,3 km/h (2 Bft)
22.02.2010 17:00 6,5 C 65 % 995,5 hPa 0,0 l/m W-NW 4,4 km/h (1 Bft)
22.02.2010 18:00 4,0 C 74 % 995,7 hPa 0,0 l/m W-NW 2,8 km/h (1 Bft)
22.02.2010 19:00 2,4 C 79 % 995,8 hPa 0,0 l/m W-NW 2,4 km/h (1 Bft)
22.02.2010 20:00 1,3 C 84 % 995,8 hPa 0,0 l/m N 1,6 km/h (1 Bft)
22.02.2010 21:00 0,5 C 87 % 996,0 hPa 0,0 l/m N 0,9 km/h (0 Bft)
22.02.2010 22:00 -0,3 C 89 % 996,2 hPa 0,0 l/m N 0,8 km/h (0 Bft)
22.02.2010 23:00 -0,5 C 90 % 996,2 hPa 0,0 l/m N 0,9 km/h (0 Bft)
23.02.2010 00:00 -0,3 C 90 % 996,1 hPa 0,0 l/m W 1,2 km/h (1 Bft)
23.02.2010 01:00 -0,8 C 91 % 996,0 hPa 0,0 l/m N 0,5 km/h (0 Bft)
23.02.2010 02:00 -0,9 C 92 % 996,1 hPa 0,0 l/m N 0,0 km/h (0 Bft)
23.02.2010 03:00 -0,1 C 91 % 996,0 hPa 0,0 l/m N 1,1 km/h (0 Bft)
23.02.2010 04:00 0,5 C 89 % 996,0 hPa 0,0 l/m S 1,3 km/h (1 Bft)
23.02.2010 05:00 3,3 C 84 % 996,0 hPa 0,0 l/m W 19,0 km/h (3 Bft)
23.02.2010 06:00 5,8 C 78 % 996,3 hPa 0,0 l/m SW 23,3 km/h (4 Bft)
23.02.2010 07:00 5,9 C 80 % 996,5 hPa 0,0 l/m SW 26,3 km/h (4 Bft)
23.02.2010 08:00 4,7 C 82 % 996,8 hPa 0,0 l/m SW 8,7 km/h (2 Bft)
23.02.2010 09:00 4,8 C 82 % 997,1 hPa 0,0 l/m SW 9,7 km/h (2 Bft)
23.02.2010 10:00 6,9 C 75 % 997,4 hPa 0,0 l/m SW 16,7 km/h (3 Bft)
23.02.2010 11:00 7,7 C 77 % 997,7 hPa 0,0 l/m W-SW 28,4 km/h (4 Bft)
23.02.2010 12:00 7,3 C 79 % 998,0 hPa 0,0 l/m W-SW 33,5 km/h (5 Bft)
23.02.2010 13:00 6,8 C 83 % 998,1 hPa 0,0 l/m W-SW 29,3 km/h (5 Bft)
23.02.2010 14:00 6,6 C 85 % 998,2 hPa 0,0 l/m W-SW 21,6 km/h (4 Bft)
23.02.2010 15:00 6,7 C 85 % 998,1 hPa 0,0 l/m SW 16,2 km/h (3 Bft)
23.02.2010 16:00 7,3 C 83 % 998,4 hPa 0,0 l/m SW 23,0 km/h (4 Bft)
23.02.2010 17:00 5,7 C 86 % 998,7 hPa 0,0 l/m SW 9,8 km/h (2 Bft)
23.02.2010 18:00 5,1 C 90 % 999,4 hPa 0,0 l/m SW 13,0 km/h (3 Bft)
23.02.2010 19:00 5,3 C 91 % 999,9 hPa 0,0 l/m SW 10,8 km/h (2 Bft)
23.02.2010 20:00 4,5 C 90 % 1000,1 hPa 0,0 l/m SW 13,6 km/h (3 Bft)
23.02.2010 21:00 4,5 C 91 % 1000,5 hPa 0,0 l/m W-SW 13,3 km/h (3 Bft)
23.02.2010 22:00 5,0 C 88 % 1000,6 hPa 0,0 l/m W-SW 12,4 km/h (3 Bft)
23.02.2010 23:00 4,6 C 87 % 1000,8 hPa 0,0 l/m SW 8,2 km/h (2 Bft)
24.02.2010 00:00 3,6 C 92 % 1001,0 hPa 0,0 l/m SW 7,4 km/h (2 Bft)
24.02.2010 01:00 3,1 C 93 % 1001,1 hPa 0,0 l/m S-SW 7,3 km/h (2 Bft)
24.02.2010 02:00 4,0 C 93 % 1001,3 hPa 0,0 l/m SW 11,3 km/h (2 Bft)
24.02.2010 03:00 3,8 C 92 % 1001,1 hPa 0,0 l/m SW 15,3 km/h (3 Bft)
24.02.2010 04:00 4,7 C 90 % 1001,0 hPa 0,0 l/m W-SW 20,2 km/h (4 Bft)
24.02.2010 05:00 4,5 C 90 % 1001,0 hPa 0,0 l/m SW 15,4 km/h (3 Bft)
24.02.2010 06:00 4,3 C 90 % 1001,0 hPa 0,0 l/m W-SW 11,8 km/h (2 Bft)
24.02.2010 07:00 2,8 C 91 % 1001,3 hPa 0,0 l/m O-SO 2,8 km/h (1 Bft)
24.02.2010 08:00 2,3 C 93 % 1001,8 hPa 0,0 l/m O-SO 2,0 km/h (1 Bft)
24.02.2010 09:00 4,1 C 92 % 1002,0 hPa 0,0 l/m S-SW 3,7 km/h (1 Bft)
24.02.2010 10:00 6,7 C 82 % 1002,3 hPa 0,0 l/m S-SW 8,6 km/h (2 Bft)
24.02.2010 11:00 7,8 C 77 % 1002,5 hPa 0,0 l/m SW 10,5 km/h (2 Bft)
24.02.2010 12:00 7,0 C 85 % 1002,9 hPa 0,6 l/m W 11,9 km/h (2 Bft)
24.02.2010 13:00 6,0 C 92 % 1002,7 hPa 0,2 l/m SW 5,9 km/h (2 Bft)
24.02.2010 14:00 6,6 C 91 % 1002,5 hPa 0,0 l/m SW 6,0 km/h (2 Bft)
24.02.2010 15:00 7,0 C 88 % 1002,7 hPa 0,0 l/m SW 5,5 km/h (1 Bft)
24.02.2010 16:00 7,7 C 83 % 1002,6 hPa 0,0 l/m SW 7,2 km/h (2 Bft)
24.02.2010 17:00 6,8 C 85 % 1002,5 hPa 0,0 l/m SW 5,5 km/h (1 Bft)
24.02.2010 18:00 5,1 C 88 % 1002,7 hPa 0,0 l/m N 2,5 km/h (1 Bft)
24.02.2010 19:00 3,6 C 90 % 1003,1 hPa 0,0 l/m N 0,3 km/h (0 Bft)
24.02.2010 20:00 2,4 C 91 % 1003,5 hPa 0,0 l/m S-SW 1,6 km/h (1 Bft)
24.02.2010 21:00 3,4 C 95 % 1004,1 hPa 0,0 l/m W-SW 15,9 km/h (3 Bft)
24.02.2010 22:00 5,4 C 90 % 1005,0 hPa 0,2 l/m W-SW 24,8 km/h (4 Bft)
24.02.2010 23:00 4,8 C 86 % 1005,1 hPa 0,0 l/m W-SW 21,9 km/h (4 Bft)
25.02.2010 00:00 3,9 C 89 % 1005,1 hPa 0,0 l/m W-SW 12,9 km/h (3 Bft)
25.02.2010 01:00 3,2 C 90 % 1004,9 hPa 0,0 l/m SW 9,1 km/h (2 Bft)
25.02.2010 02:00 2,7 C 90 % 1004,5 hPa 0,0 l/m SW 6,8 km/h (2 Bft)
25.02.2010 03:00 2,1 C 91 % 1004,4 hPa 0,0 l/m SW 9,0 km/h (2 Bft)
25.02.2010 04:00 2,5 C 87 % 1004,4 hPa 0,0 l/m S-SW 10,1 km/h (2 Bft)
25.02.2010 05:00 1,1 C 91 % 1004,1 hPa 0,0 l/m SW 8,6 km/h (2 Bft)
25.02.2010 06:00 1,3 C 93 % 1003,8 hPa 0,0 l/m SW 6,0 km/h (2 Bft)
25.02.2010 07:00 1,0 C 92 % 1003,8 hPa 0,0 l/m SW 3,3 km/h (1 Bft)
25.02.2010 08:00 1,2 C 94 % 1004,2 hPa 0,0 l/m W-SW 4,1 km/h (1 Bft)
25.02.2010 09:00 4,5 C 83 % 1003,8 hPa 0,0 l/m S-SW 13,3 km/h (3 Bft)
25.02.2010 10:00 7,0 C 73 % 1003,0 hPa 0,0 l/m S-SW 11,2 km/h (2 Bft)
25.02.2010 11:00 8,8 C 65 % 1002,8 hPa 0,0 l/m S-SW 9,3 km/h (2 Bft)
25.02.2010 12:00 10,6 C 51 % 1001,7 hPa 0,0 l/m S-SW 10,3 km/h (2 Bft)
25.02.2010 13:00 10,9 C 47 % 1000,9 hPa 0,0 l/m S-SW 8,3 km/h (2 Bft)
25.02.2010 14:00 11,1 C 46 % 1000,4 hPa 0,0 l/m SW 6,9 km/h (2 Bft)
25.02.2010 15:00 11,0 C 47 % 999,4 hPa 0,0 l/m SO 5,1 km/h (1 Bft)
25.02.2010 16:00 10,1 C 52 % 998,4 hPa 0,0 l/m SO 2,4 km/h (1 Bft)
25.02.2010 17:00 8,5 C 60 % 998,5 hPa 0,0 l/m W-NW 5,8 km/h (1 Bft)
25.02.2010 18:00 8,0 C 64 % 999,0 hPa 0,0 l/m W-SW 14,3 km/h (3 Bft)
25.02.2010 19:00 6,9 C 75 % 998,5 hPa 0,0 l/m W-SW 3,5 km/h (1 Bft)
25.02.2010 20:00 5,8 C 82 % 997,8 hPa 0,2 l/m S-SW 2,3 km/h (1 Bft)
25.02.2010 21:00 4,9 C 92 % 997,5 hPa 0,4 l/m N 0,0 km/h (0 Bft)
25.02.2010 22:00 4,3 C 95 % 997,2 hPa 0,6 l/m N 1,6 km/h (1 Bft)
25.02.2010 23:00 4,0 C 96 % 997,2 hPa 2,2 l/m SW 5,6 km/h (1 Bft)
26.02.2010 00:00 4,1 C 97 % 996,4 hPa 0,6 l/m SW 1,9 km/h (1 Bft)
26.02.2010 01:00 3,9 C 97 % 995,4 hPa 0,2 l/m SW 0,8 km/h (0 Bft)
26.02.2010 02:00 3,6 C 98 % 995,4 hPa 0,0 l/m S-SW 4,8 km/h (1 Bft)
26.02.2010 03:00 3,5 C 98 % 994,8 hPa 0,2 l/m SW 6,4 km/h (2 Bft)
26.02.2010 04:00 3,4 C 98 % 994,4 hPa 0,0 l/m SW 9,8 km/h (2 Bft)
26.02.2010 05:00 5,1 C 97 % 995,2 hPa 0,0 l/m W-SW 30,7 km/h (5 Bft)
26.02.2010 06:00 5,2 C 95 % 995,1 hPa 0,0 l/m SW 17,3 km/h (3 Bft)
26.02.2010 07:00 5,2 C 93 % 995,5 hPa 0,0 l/m SW 19,8 km/h (4 Bft)
26.02.2010 08:00 4,8 C 92 % 996,0 hPa 0,0 l/m SW 20,0 km/h (4 Bft)
26.02.2010 09:00 5,4 C 88 % 996,2 hPa 0,0 l/m SW 20,2 km/h (4 Bft)
26.02.2010 10:00 7,3 C 76 % 995,9 hPa 0,0 l/m W 30,4 km/h (5 Bft)
26.02.2010 11:00 8,7 C 67 % 995,7 hPa 0,0 l/m W-SW 36,4 km/h (5 Bft)
26.02.2010 12:00 9,0 C 62 % 995,7 hPa 0,0 l/m W-SW 35,8 km/h (5 Bft)
26.02.2010 13:00 8,3 C 66 % 996,1 hPa 0,2 l/m SW 38,5 km/h (5 Bft)
26.02.2010 14:00 8,1 C 61 % 997,4 hPa 0,0 l/m W-SW 47,5 km/h (6 Bft)
26.02.2010 15:00 6,4 C 63 % 999,5 hPa 0,0 l/m W-SW 53,5 km/h (7 Bft)
26.02.2010 16:00 5,1 C 70 % 1001,1 hPa 0,0 l/m W 38,0 km/h (5 Bft)
26.02.2010 17:00 4,5 C 74 % 1002,0 hPa 0,0 l/m W-SW 31,3 km/h (5 Bft)
26.02.2010 18:00 4,4 C 75 % 1003,2 hPa 0,0 l/m W-SW 25,7 km/h (4 Bft)
26.02.2010 19:00 4,0 C 78 % 1004,4 hPa 0,0 l/m W-SW 21,0 km/h (4 Bft)
26.02.2010 20:00 3,1 C 84 % 1005,0 hPa 0,0 l/m W-SW 19,2 km/h (3 Bft)
26.02.2010 21:00 3,5 C 83 % 1006,1 hPa 0,0 l/m W 18,9 km/h (3 Bft)
26.02.2010 22:00 3,4 C 82 % 1007,0 hPa 0,0 l/m W-SW 17,3 km/h (3 Bft)
26.02.2010 23:00 3,1 C 81 % 1007,4 hPa 0,0 l/m W 16,8 km/h (3 Bft)
27.02.2010 00:00 2,7 C 80 % 1008,1 hPa 0,0 l/m SW 13,4 km/h (3 Bft)
27.02.2010 01:00 2,7 C 78 % 1008,7 hPa 0,0 l/m SW 16,4 km/h (3 Bft)
27.02.2010 02:00 1,0 C 85 % 1009,0 hPa 0,0 l/m SW 8,3 km/h (2 Bft)
27.02.2010 03:00 0,5 C 87 % 1009,3 hPa 0,0 l/m SW 9,3 km/h (2 Bft)
27.02.2010 04:00 1,5 C 83 % 1009,4 hPa 0,0 l/m SW 12,1 km/h (2 Bft)
27.02.2010 05:00 1,3 C 82 % 1009,8 hPa 0,0 l/m SW 12,8 km/h (3 Bft)
27.02.2010 06:00 1,3 C 81 % 1009,9 hPa 0,0 l/m W-SW 11,3 km/h (2 Bft)
27.02.2010 07:00 1,6 C 80 % 1010,1 hPa 0,0 l/m SW 10,7 km/h (2 Bft)
27.02.2010 08:00 2,0 C 78 % 1010,2 hPa 0,0 l/m SW 13,5 km/h (3 Bft)
27.02.2010 09:00 4,6 C 70 % 1009,8 hPa 0,0 l/m SW 13,3 km/h (3 Bft)
27.02.2010 10:00 6,1 C 66 % 1009,2 hPa 0,0 l/m SW 17,4 km/h (3 Bft)
27.02.2010 11:00 7,7 C 59 % 1008,8 hPa 0,0 l/m SW 18,2 km/h (3 Bft)
27.02.2010 12:00 9,0 C 50 % 1008,0 hPa 0,0 l/m S 19,7 km/h (3 Bft)
27.02.2010 13:00 10,0 C 40 % 1006,9 hPa 0,0 l/m S-SW 17,6 km/h (3 Bft)
27.02.2010 14:00 10,6 C 31 % 1005,7 hPa 0,0 l/m S-SW 14,8 km/h (3 Bft)
27.02.2010 15:00 10,5 C 28 % 1004,5 hPa 0,0 l/m S-SW 8,4 km/h (2 Bft)
27.02.2010 16:00 10,0 C 31 % 1003,2 hPa 0,0 l/m SO 5,2 km/h (1 Bft)
27.02.2010 17:00 8,8 C 35 % 1002,0 hPa 0,0 l/m O-SO 4,9 km/h (1 Bft)
27.02.2010 18:00 6,3 C 45 % 1001,3 hPa 0,0 l/m N 0,7 km/h (0 Bft)
27.02.2010 19:00 4,8 C 47 % 1000,8 hPa 0,0 l/m N 1,2 km/h (1 Bft)
27.02.2010 20:00 5,0 C 48 % 999,6 hPa 0,0 l/m N 1,3 km/h (1 Bft)
27.02.2010 21:00 4,8 C 54 % 998,2 hPa 0,0 l/m O-SO 1,3 km/h (1 Bft)
27.02.2010 22:00 6,8 C 41 % 997,3 hPa 0,0 l/m SW 6,6 km/h (2 Bft)
27.02.2010 23:00 6,8 C 43 % 996,3 hPa 0,0 l/m S 3,2 km/h (1 Bft)
28.02.2010 00:00 7,6 C 44 % 995,4 hPa 0,0 l/m SO 7,0 km/h (2 Bft)
28.02.2010 01:00 7,6 C 52 % 994,1 hPa 0,2 l/m S-SO 10,1 km/h (2 Bft)
28.02.2010 02:00 5,9 C 71 % 992,7 hPa 0,2 l/m S 5,2 km/h (1 Bft)
28.02.2010 03:00 5,1 C 75 % 991,5 hPa 0,0 l/m W 5,2 km/h (1 Bft)
28.02.2010 04:00 4,3 C 80 % 990,8 hPa 0,0 l/m N 2,4 km/h (1 Bft)
28.02.2010 05:00 4,4 C 81 % 990,6 hPa 0,0 l/m W-NW 2,8 km/h (1 Bft)
28.02.2010 06:00 5,3 C 77 % 991,1 hPa 0,0 l/m W-NW 5,9 km/h (2 Bft)
28.02.2010 07:00 5,5 C 79 % 991,7 hPa 0,4 l/m S-SW 7,4 km/h (2 Bft)
28.02.2010 08:00 5,6 C 80 % 991,8 hPa 0,0 l/m SW 11,8 km/h (2 Bft)
28.02.2010 09:00 7,2 C 72 % 992,1 hPa 0,0 l/m S 9,1 km/h (2 Bft)
28.02.2010 10:00 7,6 C 71 % 992,4 hPa 0,2 l/m W-SW 14,6 km/h (3 Bft)
28.02.2010 11:00 8,7 C 70 % 993,3 hPa 0,0 l/m W-SW 22,8 km/h (4 Bft)
28.02.2010 12:00 11,0 C 60 % 994,1 hPa 0,0 l/m W-SW 46,0 km/h (6 Bft)
28.02.2010 13:00 11,4 C 60 % 994,9 hPa 0,0 l/m W-SW 50,7 km/h (7 Bft)
28.02.2010 14:00 11,5 C 58 % 995,8 hPa 0,0 l/m W-SW 48,1 km/h (6 Bft)
28.02.2010 15:00 12,4 C 49 % 996,6 hPa 0,0 l/m W-SW 47,3 km/h (6 Bft)
28.02.2010 16:00 11,9 C 50 % 997,2 hPa 0,0 l/m W 41,1 km/h (6 Bft)
28.02.2010 17:00 10,0 C 59 % 997,9 hPa 0,0 l/m W-SW 38,5 km/h (5 Bft)
28.02.2010 18:00 8,8 C 60 % 998,8 hPa 0,0 l/m W-SW 26,8 km/h (4 Bft)
28.02.2010 19:00 8,4 C 63 % 999,6 hPa 0,0 l/m W-SW 24,8 km/h (4 Bft)
28.02.2010 20:00 7,7 C 69 % 1000,6 hPa 0,0 l/m SW 23,2 km/h (4 Bft)
28.02.2010 21:00 7,5 C 63 % 1001,5 hPa 0,0 l/m SW 33,4 km/h (5 Bft)
28.02.2010 22:00 7,2 C 59 % 1002,4 hPa 0,0 l/m W-SW 33,8 km/h (5 Bft)
28.02.2010 23:00 6,4 C 65 % 1003,6 hPa 0,0 l/m W 35,8 km/h (5 Bft)
Min-Datum _ 22.02.10 27.02.10 28.02.10 - - 22.02.10
_ Min-Zeit 01:25 15:45 05:55 - - 00:00
Minimum _ -2,9 C 26 % 990,2 hPa - - 0,0 km/h (0 Bft)
Max-Datum _ 28.02.10 26.02.10 27.02.10 25.02.10 - 26.02.10
_ Max-Zeit 15:20 04:45 07:50 23:35 - 15:10
Maximum _ 12,8 C 99 % 1010,3 hPa 2,2 l/m - 62,8 km/h
W-SW (8 Bft)
Durchschnitt _ 5,0 C 77 % 999,9 hPa #6,6 l/m SW 13,2 km/h (3 Bft)